Time;durP1;ratioP1;P1;durP2;ratioP2;P2;SDS_P1;SDS_P2;PMS_P1;PMS_P2;Temp;Humidity;BMP_temperature;BMP_pressure;BME280_temperature;BME280_humidity;BME280_pressure;Samples;Min_cycle;Max_cycle;Signal;HPM_P1;HPM_P2
2022/11/10 00:01:22;;;;;;;24.98;3.80;;;;;;;;;;5122588;27;20055;-75
2022/11/10 00:03:52;;;;;;;14.13;3.43;;;;;;;;;;5138161;27;20097;-74
2022/11/10 00:06:20;;;;;;;17.88;3.28;;;;;;;;;;5115862;27;20134;-75
2022/11/10 00:08:47;;;;;;;18.55;3.40;;;;;;;;;;5134869;27;20040;-76
2022/11/10 00:11:17;;;;;;;16.90;3.50;;;;;;;;;;5133636;27;20143;-75
2022/11/10 00:19:19;;;;;;;23.83;5.07;;;;;;;;;;5128330;27;20048;-75
2022/11/10 00:21:47;;;;;;;24.95;4.00;;;;;;;;;;5128474;27;20058;-75
2022/11/10 00:24:14;;;;;;;28.98;4.43;;;;;;;;;;5134134;27;20136;-75
2022/11/10 00:26:41;;;;;;;18.17;3.67;;;;;;;;;;5132309;27;20051;-75
2022/11/10 00:29:08;;;;;;;26.30;4.07;;;;;;;;;;5136573;27;20496;-75
2022/11/10 00:31:39;;;;;;;27.75;4.25;;;;;;;;;;5139941;27;20956;-74
2022/11/10 00:34:06;;;;;;;24.50;4.10;;;;;;;;;;5134861;27;20520;-75
2022/11/10 00:36:36;;;;;;;26.80;3.92;;;;;;;;;;5133483;27;20975;-75
2022/11/10 00:39:04;;;;;;;33.15;4.38;;;;;;;;;;5142813;27;20079;-75
2022/11/10 00:41:31;;;;;;;29.13;4.43;;;;;;;;;;5135673;27;20047;-75
2022/11/10 00:43:59;;;;;;;21.75;3.97;;;;;;;;;;5139664;27;20047;-75
2022/11/10 00:46:26;;;;;;;33.25;4.78;;;;;;;;;;5137196;27;20802;-75
2022/11/10 00:48:54;;;;;;;19.77;3.67;;;;;;;;;;5132359;27;20040;-75
2022/11/10 00:51:25;;;;;;;20.90;4.03;;;;;;;;;;5124682;27;20040;-75
2022/11/10 00:53:53;;;;;;;26.23;5.05;;;;;;;;;;5139299;27;20051;-75
2022/11/10 00:56:21;;;;;;;29.95;4.72;;;;;;;;;;5145071;27;20047;-75
2022/11/10 00:58:48;;;;;;;23.33;4.78;;;;;;;;;;5140135;27;20058;-75
2022/11/10 01:01:16;;;;;;;23.90;5.60;;;;;;;;;;5137024;27;20565;-75
2022/11/10 01:03:43;;;;;;;20.65;3.83;;;;;;;;;;5137238;27;20498;-75
2022/11/10 01:06:12;;;;;;;25.83;5.20;;;;;;;;;;5124457;27;20055;-75
2022/11/10 01:08:40;;;;;;;25.90;4.68;;;;;;;;;;5133506;27;20055;-75
2022/11/10 01:11:09;;;;;;;25.23;4.50;;;;;;;;;;5142828;27;20047;-75
2022/11/10 01:13:39;;;;;;;23.83;4.20;;;;;;;;;;5141043;27;20047;-75
2022/11/10 01:16:07;;;;;;;29.30;4.78;;;;;;;;;;5134680;27;20054;-75
2022/11/10 01:18:35;;;;;;;33.30;4.43;;;;;;;;;;5134767;27;20051;-74
2022/11/10 01:21:03;;;;;;;23.77;4.55;;;;;;;;;;5140246;27;20046;-75
2022/11/10 01:23:30;;;;;;;28.65;4.43;;;;;;;;;;5145989;27;20504;-75
2022/11/10 01:25:58;;;;;;;28.63;4.25;;;;;;;;;;5141150;27;20058;-75
2022/11/10 01:28:25;;;;;;;15.85;4.00;;;;;;;;;;5139896;27;20043;-75
2022/11/10 01:30:57;;;;;;;19.40;4.32;;;;;;;;;;5140132;27;20048;-75
2022/11/10 01:33:24;;;;;;;20.55;4.95;;;;;;;;;;5134082;27;20044;-75
2022/11/10 01:35:51;;;;;;;28.67;4.75;;;;;;;;;;5138521;27;20047;-75
2022/11/10 01:38:18;;;;;;;22.63;4.10;;;;;;;;;;5137461;27;20036;-75
2022/11/10 01:40:46;;;;;;;28.35;4.63;;;;;;;;;;5140428;27;20097;-75
2022/11/10 01:43:13;;;;;;;17.10;4.55;;;;;;;;;;5142123;27;20050;-75
2022/11/10 01:45:59;;;;;;;27.45;4.68;;;;;;;;;;5136533;27;20052;-75
2022/11/10 01:48:30;;;;;;;31.50;5.45;;;;;;;;;;5136488;27;20126;-75
2022/11/10 01:51:00;;;;;;;40.30;5.43;;;;;;;;;;5136086;27;20389;-75
2022/11/10 01:53:28;;;;;;;30.63;5.60;;;;;;;;;;5142538;27;20073;-75
2022/11/10 01:55:56;;;;;;;25.75;5.65;;;;;;;;;;5124006;27;20060;-75
2022/11/10 01:58:25;;;;;;;23.52;5.30;;;;;;;;;;5145827;27;20047;-75
2022/11/10 02:00:53;;;;;;;31.92;5.35;;;;;;;;;;5147243;27;20047;-75
2022/11/10 02:03:25;;;;;;;31.88;5.25;;;;;;;;;;5141259;27;20047;-75
2022/11/10 02:05:52;;;;;;;26.60;5.85;;;;;;;;;;5136579;27;20043;-75
2022/11/10 02:08:21;;;;;;;26.73;5.55;;;;;;;;;;5137605;27;20071;-75
2022/11/10 02:10:48;;;;;;;30.02;6.13;;;;;;;;;;5144113;27;20044;-75
2022/11/10 02:13:16;;;;;;;25.60;5.72;;;;;;;;;;5143046;27;20044;-75
2022/11/10 02:15:43;;;;;;;23.67;5.88;;;;;;;;;;5138700;27;20051;-75
2022/11/10 02:18:10;;;;;;;28.50;5.50;;;;;;;;;;5138513;27;20167;-75
2022/11/10 02:20:37;;;;;;;22.75;6.13;;;;;;;;;;5130219;27;20088;-75
2022/11/10 02:23:34;;;;;;;32.08;7.70;;;;;;;;;;5138826;27;20055;-74
2022/11/10 02:26:04;;;;;;;35.83;6.68;;;;;;;;;;5126036;27;20048;-75
2022/11/10 02:28:35;;;;;;;30.40;6.60;;;;;;;;;;5120953;27;21038;-76
2022/11/10 02:31:08;;;;;;;33.60;7.35;;;;;;;;;;5139828;27;20126;-75
2022/11/10 02:33:36;;;;;;;29.08;5.90;;;;;;;;;;5135443;27;20052;-75
2022/11/10 02:36:06;;;;;;;26.00;5.82;;;;;;;;;;5116743;27;20055;-75
2022/11/10 02:38:33;;;;;;;34.92;5.70;;;;;;;;;;5136284;27;20059;-75
2022/11/10 02:41:00;;;;;;;23.90;5.85;;;;;;;;;;5125875;27;20050;-75
2022/11/10 02:43:28;;;;;;;22.15;5.57;;;;;;;;;;5131971;27;20101;-75
2022/11/10 02:45:55;;;;;;;29.52;5.57;;;;;;;;;;5143025;27;20051;-75
2022/11/10 02:48:23;;;;;;;25.52;5.63;;;;;;;;;;5133129;27;20100;-75
2022/11/10 02:50:50;;;;;;;25.63;5.95;;;;;;;;;;5140370;27;20051;-75
2022/11/10 02:53:18;;;;;;;35.53;6.07;;;;;;;;;;5137333;27;20108;-75
2022/11/10 02:55:46;;;;;;;27.52;6.55;;;;;;;;;;5112471;27;20039;-75
2022/11/10 02:58:13;;;;;;;30.80;5.63;;;;;;;;;;5135158;27;20051;-77
2022/11/10 03:00:40;;;;;;;31.25;6.60;;;;;;;;;;5119750;27;20050;-75
2022/11/10 03:03:07;;;;;;;27.90;7.18;;;;;;;;;;5137481;27;20131;-75
2022/11/10 03:05:35;;;;;;;21.95;6.00;;;;;;;;;;5135675;27;20054;-75
2022/11/10 03:08:03;;;;;;;27.95;6.53;;;;;;;;;;5119166;27;20535;-75
2022/11/10 03:10:30;;;;;;;26.58;5.80;;;;;;;;;;5144902;27;20492;-75
2022/11/10 03:12:59;;;;;;;27.30;6.03;;;;;;;;;;5131300;27;20719;-75
2022/11/10 03:15:26;;;;;;;36.22;6.43;;;;;;;;;;5144213;27;20508;-75
2022/11/10 03:17:54;;;;;;;27.40;6.28;;;;;;;;;;5137835;27;20093;-75
2022/11/10 03:20:21;;;;;;;36.65;6.85;;;;;;;;;;5122729;27;20059;-75
2022/11/10 03:22:49;;;;;;;23.77;5.93;;;;;;;;;;5136887;27;20101;-75
2022/11/10 03:25:16;;;;;;;24.83;6.20;;;;;;;;;;5134595;27;20043;-75
2022/11/10 03:27:45;;;;;;;34.95;6.05;;;;;;;;;;5129116;27;20134;-75
2022/11/10 03:30:15;;;;;;;35.03;6.78;;;;;;;;;;5138429;27;20173;-75
2022/11/10 03:32:42;;;;;;;23.95;6.53;;;;;;;;;;5131338;27;20055;-75
2022/11/10 03:35:10;;;;;;;26.05;6.10;;;;;;;;;;5119590;27;20055;-75
2022/11/10 03:37:38;;;;;;;25.08;5.78;;;;;;;;;;5134538;27;20047;-75
2022/11/10 03:40:05;;;;;;;27.40;6.50;;;;;;;;;;5137658;27;20052;-75
2022/11/10 03:42:32;;;;;;;26.17;6.70;;;;;;;;;;5130403;27;20093;-75
2022/11/10 03:45:00;;;;;;;27.13;6.13;;;;;;;;;;5133473;27;20052;-75
2022/11/10 03:47:27;;;;;;;29.25;6.53;;;;;;;;;;5133913;27;20138;-75
2022/11/10 03:49:55;;;;;;;35.83;6.70;;;;;;;;;;5133450;27;20039;-75
2022/11/10 03:52:22;;;;;;;27.15;6.50;;;;;;;;;;5131061;27;20930;-75
2022/11/10 03:54:49;;;;;;;25.13;6.45;;;;;;;;;;5139533;27;20087;-75
2022/11/10 03:57:16;;;;;;;28.33;5.72;;;;;;;;;;5134270;27;20050;-77
2022/11/10 03:59:43;;;;;;;32.55;6.40;;;;;;;;;;5141264;27;20051;-75
2022/11/10 04:02:11;;;;;;;27.85;5.90;;;;;;;;;;5146746;27;20047;-75
2022/11/10 04:10:10;;;;;;;25.58;6.65;;;;;;;;;;5136077;27;20051;-75
2022/11/10 04:15:41;;;;;;;28.77;6.00;;;;;;;;;;5140485;27;20134;-75
2022/11/10 04:18:24;;;;;;;27.38;6.80;;;;;;;;;;5140929;27;20157;-75
2022/11/10 04:20:59;;;;;;;21.02;6.10;;;;;;;;;;5120585;27;20055;-76
2022/11/10 04:23:33;;;;;;;28.80;6.00;;;;;;;;;;5134837;27;20048;-75
2022/11/10 04:28:48;;;;;;;26.25;6.10;;;;;;;;;;5140680;27;20134;-75
2022/11/10 04:31:16;;;;;;;20.65;5.50;;;;;;;;;;5127524;27;20044;-75
2022/11/10 04:33:44;;;;;;;20.42;5.75;;;;;;;;;;5141299;27;20123;-75
2022/11/10 04:36:13;;;;;;;26.17;6.15;;;;;;;;;;5138329;27;22433;-75
2022/11/10 04:38:40;;;;;;;26.55;6.55;;;;;;;;;;5136701;27;20051;-75
2022/11/10 04:41:08;;;;;;;30.83;6.28;;;;;;;;;;5132243;27;20679;-75
2022/11/10 04:43:36;;;;;;;33.55;6.63;;;;;;;;;;5123841;27;20070;-75
2022/11/10 04:46:04;;;;;;;30.38;6.38;;;;;;;;;;5141733;27;20057;-75
2022/11/10 04:48:33;;;;;;;24.50;6.25;;;;;;;;;;5146179;27;20094;-75
2022/11/10 04:51:04;;;;;;;27.45;5.43;;;;;;;;;;5137958;27;20488;-75
2022/11/10 04:53:32;;;;;;;36.70;6.63;;;;;;;;;;5132135;27;20052;-75
2022/11/10 04:55:59;;;;;;;33.70;6.40;;;;;;;;;;5140336;27;20472;-75
2022/11/10 04:58:26;;;;;;;32.38;6.25;;;;;;;;;;5144400;27;20278;-75
2022/11/10 05:00:54;;;;;;;30.50;6.30;;;;;;;;;;5141879;27;20043;-75
2022/11/10 05:03:21;;;;;;;37.05;6.95;;;;;;;;;;5136390;27;20076;-75
2022/11/10 05:05:49;;;;;;;33.58;6.68;;;;;;;;;;5132970;27;20052;-75
2022/11/10 05:08:16;;;;;;;37.65;7.03;;;;;;;;;;5142195;27;20047;-75
2022/11/10 05:10:44;;;;;;;26.20;5.85;;;;;;;;;;5139822;27;20094;-75
2022/11/10 05:13:11;;;;;;;26.83;5.68;;;;;;;;;;5137518;27;20788;-75
2022/11/10 05:15:40;;;;;;;33.53;7.13;;;;;;;;;;5149209;27;20126;-75
2022/11/10 05:18:08;;;;;;;29.17;6.85;;;;;;;;;;5127313;27;20056;-75
2022/11/10 05:20:35;;;;;;;35.88;7.07;;;;;;;;;;5141374;27;20055;-75
2022/11/10 05:25:49;;;;;;;23.10;7.43;;;;;;;;;;5138180;27;20047;-75
2022/11/10 05:28:17;;;;;;;40.63;7.88;;;;;;;;;;5144853;27;20047;-75
2022/11/10 05:30:45;;;;;;;25.70;7.28;;;;;;;;;;5142382;27;20048;-75
2022/11/10 05:33:12;;;;;;;32.25;6.95;;;;;;;;;;5137709;27;20519;-75
2022/11/10 05:35:39;;;;;;;38.80;7.65;;;;;;;;;;5138541;27;20052;-75
2022/11/10 05:38:07;;;;;;;32.90;7.30;;;;;;;;;;5139861;27;20075;-76
2022/11/10 05:40:34;;;;;;;38.83;8.02;;;;;;;;;;5139349;27;20512;-76
2022/11/10 05:43:01;;;;;;;30.95;7.35;;;;;;;;;;5137818;27;20044;-76
2022/11/10 05:45:29;;;;;;;39.83;8.00;;;;;;;;;;5116404;27;20053;-76
2022/11/10 05:47:56;;;;;;;34.03;7.28;;;;;;;;;;5134483;27;20055;-75
2022/11/10 05:50:24;;;;;;;26.23;6.72;;;;;;;;;;5131457;27;20170;-76
2022/11/10 05:52:52;;;;;;;28.25;5.70;;;;;;;;;;5117135;27;20047;-76
2022/11/10 05:55:23;;;;;;;38.10;6.80;;;;;;;;;;5137538;27;20048;-75
2022/11/10 05:57:51;;;;;;;31.45;6.13;;;;;;;;;;5116333;27;20052;-76
2022/11/10 06:00:23;;;;;;;26.95;6.47;;;;;;;;;;5139763;27;20055;-76
2022/11/10 06:02:58;;;;;;;28.98;6.70;;;;;;;;;;5146973;27;20047;-76
2022/11/10 06:05:25;;;;;;;29.60;5.88;;;;;;;;;;5139760;27;20642;-76
2022/11/10 06:07:57;;;;;;;29.65;5.90;;;;;;;;;;5152431;27;20046;-76
2022/11/10 06:10:25;;;;;;;26.23;6.35;;;;;;;;;;5122883;27;20043;-76
2022/11/10 06:12:53;;;;;;;34.67;6.50;;;;;;;;;;5128884;27;20059;-76
2022/11/10 06:15:20;;;;;;;27.50;6.05;;;;;;;;;;5140884;27;20892;-76
2022/11/10 06:17:49;;;;;;;27.65;6.22;;;;;;;;;;5142200;27;20058;-76
2022/11/10 06:20:23;;;;;;;28.02;6.15;;;;;;;;;;5137233;27;20055;-76
2022/11/10 06:23:00;;;;;;;34.85;6.57;;;;;;;;;;5135436;27;20764;-76
2022/11/10 06:25:29;;;;;;;30.30;5.90;;;;;;;;;;5124769;27;20047;-76
2022/11/10 06:27:57;;;;;;;40.28;6.72;;;;;;;;;;5139100;27;20047;-76
2022/11/10 06:30:33;;;;;;;40.80;6.03;;;;;;;;;;5138719;27;20087;-78
2022/11/10 06:33:01;;;;;;;26.83;5.70;;;;;;;;;;5136747;27;20044;-75
2022/11/10 06:35:29;;;;;;;27.75;6.57;;;;;;;;;;5142718;27;20047;-76
2022/11/10 06:37:57;;;;;;;39.35;7.30;;;;;;;;;;5140099;27;20044;-76
2022/11/10 06:40:25;;;;;;;31.15;5.43;;;;;;;;;;5134132;27;20048;-76
2022/11/10 06:42:53;;;;;;;30.73;5.53;;;;;;;;;;5145986;27;20050;-76
2022/11/10 06:45:20;;;;;;;30.98;5.95;;;;;;;;;;5120900;27;20048;-76
2022/11/10 06:47:51;;;;;;;33.28;5.93;;;;;;;;;;5142578;27;20527;-76
2022/11/10 06:50:18;;;;;;;29.40;7.32;;;;;;;;;;5135610;27;21260;-76
2022/11/10 06:52:53;;;;;;;26.35;5.72;;;;;;;;;;5140196;27;20054;-76
2022/11/10 06:55:21;;;;;;;24.20;5.72;;;;;;;;;;5140080;27;20043;-76
2022/11/10 06:57:48;;;;;;;26.92;5.57;;;;;;;;;;5135266;27;20047;-76
2022/11/10 07:00:16;;;;;;;32.67;5.60;;;;;;;;;;5133986;27;20075;-76
2022/11/10 07:02:43;;;;;;;35.88;6.32;;;;;;;;;;5122814;27;20047;-76
2022/11/10 07:05:10;;;;;;;32.70;5.85;;;;;;;;;;5134396;27;20048;-76
2022/11/10 07:07:40;;;;;;;28.00;4.60;;;;;;;;;;5138377;27;20058;-76
2022/11/10 07:10:08;;;;;;;23.85;5.68;;;;;;;;;;5136511;27;20504;-76
2022/11/10 07:12:35;;;;;;;27.95;5.40;;;;;;;;;;5144549;27;20051;-76
2022/11/10 07:15:03;;;;;;;22.98;5.50;;;;;;;;;;5138865;27;20047;-75
2022/11/10 07:17:30;;;;;;;31.63;5.40;;;;;;;;;;5134666;27;20039;-76
2022/11/10 07:20:01;;;;;;;32.75;4.95;;;;;;;;;;5129609;27;20048;-76
2022/11/10 07:22:28;;;;;;;27.20;5.63;;;;;;;;;;5130817;27;20056;-76
2022/11/10 07:25:00;;;;;;;28.95;4.75;;;;;;;;;;5140577;27;20108;-76
2022/11/10 07:27:27;;;;;;;26.30;4.47;;;;;;;;;;5130319;27;20058;-76
2022/11/10 07:29:54;;;;;;;25.70;5.15;;;;;;;;;;5131794;27;20044;-76
2022/11/10 07:32:21;;;;;;;30.65;4.68;;;;;;;;;;5140794;27;20673;-76
2022/11/10 07:34:52;;;;;;;27.45;7.15;;;;;;;;;;5142652;27;20134;-76
2022/11/10 07:37:19;;;;;;;31.67;5.63;;;;;;;;;;5144681;27;20051;-76
2022/11/10 07:39:47;;;;;;;26.92;6.22;;;;;;;;;;5117971;27;20063;-76
2022/11/10 07:42:14;;;;;;;32.97;6.53;;;;;;;;;;5141534;27;20052;-76
2022/11/10 07:44:42;;;;;;;25.65;5.60;;;;;;;;;;5112129;27;20052;-75
2022/11/10 07:47:09;;;;;;;28.17;5.60;;;;;;;;;;5112109;27;20054;-76
2022/11/10 07:49:36;;;;;;;17.23;5.45;;;;;;;;;;5139427;27;20540;-76
2022/11/10 07:52:06;;;;;;;26.05;5.40;;;;;;;;;;5128863;27;20054;-76
2022/11/10 07:54:34;;;;;;;27.98;5.53;;;;;;;;;;5123479;27;20048;-76
2022/11/10 07:57:09;;;;;;;25.48;5.38;;;;;;;;;;5133024;27;20058;-76
2022/11/10 07:59:36;;;;;;;27.70;5.43;;;;;;;;;;5133075;27;20078;-76
2022/11/10 08:02:05;;;;;;;28.05;5.05;;;;;;;;;;5132780;27;20117;-76
2022/11/10 08:04:32;;;;;;;35.33;6.10;;;;;;;;;;5118679;27;20055;-76
2022/11/10 08:07:02;;;;;;;24.42;4.80;;;;;;;;;;5137756;27;20100;-76
2022/11/10 08:09:32;;;;;;;24.83;5.03;;;;;;;;;;5141997;27;20048;-76
2022/11/10 08:12:02;;;;;;;26.52;7.60;;;;;;;;;;5135914;27;20132;-76
2022/11/10 08:14:30;;;;;;;23.08;4.55;;;;;;;;;;5135448;27;20547;-76
2022/11/10 08:16:58;;;;;;;23.08;4.80;;;;;;;;;;5133025;27;20043;-76
2022/11/10 08:19:25;;;;;;;22.15;4.75;;;;;;;;;;5143367;27;20051;-76
2022/11/10 08:21:52;;;;;;;22.98;4.22;;;;;;;;;;5138848;27;20504;-76
2022/11/10 08:24:19;;;;;;;30.30;4.45;;;;;;;;;;5136871;27;20048;-76
2022/11/10 08:26:47;;;;;;;22.50;4.57;;;;;;;;;;5113919;27;20062;-76
2022/11/10 08:29:14;;;;;;;35.15;5.00;;;;;;;;;;5141332;27;20047;-76
2022/11/10 08:31:41;;;;;;;27.77;4.43;;;;;;;;;;5140874;27;20533;-76
2022/11/10 08:34:09;;;;;;;18.98;3.75;;;;;;;;;;5139365;27;20189;-76
2022/11/10 08:36:36;;;;;;;25.98;5.43;;;;;;;;;;5139702;27;20051;-76
2022/11/10 08:39:06;;;;;;;20.85;3.63;;;;;;;;;;5123981;27;20050;-76
2022/11/10 08:41:33;;;;;;;23.15;3.63;;;;;;;;;;5141183;27;20047;-76
2022/11/10 08:44:04;;;;;;;24.95;3.88;;;;;;;;;;5143145;27;20638;-76
2022/11/10 08:46:37;;;;;;;22.00;3.67;;;;;;;;;;5141966;27;20083;-76
2022/11/10 08:49:07;;;;;;;20.08;3.58;;;;;;;;;;5139870;27;20056;-76
2022/11/10 08:51:37;;;;;;;20.55;3.25;;;;;;;;;;5138457;27;20050;-77
2022/11/10 08:54:07;;;;;;;14.65;3.25;;;;;;;;;;5135480;27;20055;-76
2022/11/10 08:56:35;;;;;;;21.13;3.78;;;;;;;;;;5142763;27;20051;-76
2022/11/10 08:59:02;;;;;;;25.77;4.13;;;;;;;;;;5123904;27;20054;-76
2022/11/10 09:01:30;;;;;;;16.45;3.30;;;;;;;;;;5144670;27;20134;-76
2022/11/10 09:03:57;;;;;;;23.45;3.45;;;;;;;;;;5139589;27;20108;-76
2022/11/10 09:06:24;;;;;;;19.40;3.00;;;;;;;;;;5138046;27;20487;-77
2022/11/10 09:08:52;;;;;;;17.45;3.25;;;;;;;;;;5144216;27;20056;-76
2022/11/10 09:11:22;;;;;;;13.05;3.33;;;;;;;;;;5132468;27;20079;-76
2022/11/10 09:13:49;;;;;;;18.77;3.05;;;;;;;;;;5143468;27;20625;-76
2022/11/10 09:16:17;;;;;;;19.42;3.58;;;;;;;;;;5131274;27;20051;-77
2022/11/10 09:18:44;;;;;;;16.05;3.20;;;;;;;;;;5118037;27;21123;-76
2022/11/10 09:21:11;;;;;;;16.70;2.60;;;;;;;;;;5106943;28;20044;-76
2022/11/10 09:23:39;;;;;;;13.80;3.45;;;;;;;;;;5096487;27;20044;-76
2022/11/10 09:26:06;;;;;;;11.63;2.75;;;;;;;;;;5111765;27;20175;-76
2022/11/10 09:28:36;;;;;;;15.52;3.30;;;;;;;;;;5099126;27;20047;-76
2022/11/10 09:31:04;;;;;;;19.33;3.58;;;;;;;;;;5102576;27;20044;-76
2022/11/10 09:33:32;;;;;;;18.33;3.50;;;;;;;;;;5109864;27;20051;-76
2022/11/10 09:36:00;;;;;;;18.65;3.60;;;;;;;;;;5123221;27;20052;-76
2022/11/10 09:38:28;;;;;;;17.52;3.45;;;;;;;;;;5099962;27;20105;-76
2022/11/10 09:41:01;;;;;;;17.63;3.50;;;;;;;;;;5116892;27;20052;-76
2022/11/10 09:43:35;;;;;;;14.77;3.30;;;;;;;;;;5108714;27;20058;-77
2022/11/10 09:46:06;;;;;;;15.43;3.22;;;;;;;;;;5111135;27;20109;-76
2022/11/10 09:48:40;;;;;;;25.30;4.20;;;;;;;;;;5104009;27;20044;-76
2022/11/10 09:51:23;;;;;;;20.48;3.63;;;;;;;;;;5114657;27;20086;-76
2022/11/10 09:54:13;;;;;;;17.80;2.92;;;;;;;;;;5110512;27;20479;-76
2022/11/10 09:56:41;;;;;;;13.82;2.83;;;;;;;;;;5120144;27;20056;-76
2022/11/10 09:59:21;;;;;;;16.10;3.38;;;;;;;;;;5114805;27;20110;-76
2022/11/10 10:02:00;;;;;;;13.52;2.45;;;;;;;;;;5102806;27;20135;-76
2022/11/10 10:04:33;;;;;;;15.57;2.80;;;;;;;;;;5109705;27;20052;-76
2022/11/10 10:07:06;;;;;;;19.30;3.15;;;;;;;;;;5113052;27;20058;-76
2022/11/10 10:09:38;;;;;;;17.50;2.53;;;;;;;;;;5115737;27;20052;-76
2022/11/10 10:12:22;;;;;;;12.40;2.30;;;;;;;;;;5122706;27;20048;-76
2022/11/10 10:15:07;;;;;;;17.90;2.78;;;;;;;;;;5115686;27;20052;-76
2022/11/10 10:17:43;;;;;;;15.95;3.10;;;;;;;;;;5118593;27;20056;-76
2022/11/10 10:20:17;;;;;;;18.20;2.72;;;;;;;;;;5143115;27;20142;-76
2022/11/10 10:23:00;;;;;;;12.27;2.53;;;;;;;;;;5137292;27;20047;-76
2022/11/10 10:25:27;;;;;;;15.07;2.70;;;;;;;;;;5129974;27;20058;-76
2022/11/10 10:28:06;;;;;;;21.38;3.53;;;;;;;;;;5130701;27;20055;-75
2022/11/10 10:30:33;;;;;;;14.98;3.00;;;;;;;;;;5140726;27;20054;-76
2022/11/10 10:33:08;;;;;;;18.10;3.00;;;;;;;;;;5133668;27;20050;-76
2022/11/10 10:35:35;;;;;;;15.20;2.70;;;;;;;;;;5125719;27;20122;-76
2022/11/10 10:38:17;;;;;;;17.58;2.70;;;;;;;;;;5130540;27;20090;-76
2022/11/10 10:40:46;;;;;;;12.15;2.40;;;;;;;;;;5144112;27;20054;-76
2022/11/10 10:43:13;;;;;;;12.02;2.22;;;;;;;;;;5137989;27;20157;-76
2022/11/10 10:45:41;;;;;;;14.93;2.95;;;;;;;;;;5119820;27;20051;-76
2022/11/10 10:48:25;;;;;;;15.98;2.80;;;;;;;;;;5134979;27;20108;-76
2022/11/10 10:50:52;;;;;;;16.73;2.47;;;;;;;;;;5132148;27;20047;-76
2022/11/10 10:53:21;;;;;;;22.23;3.83;;;;;;;;;;5142129;27;20450;-74
2022/11/10 10:56:08;;;;;;;12.57;2.38;;;;;;;;;;5131296;27;20108;-74
2022/11/10 10:58:48;;;;;;;14.88;2.15;;;;;;;;;;5126215;27;20051;-74
2022/11/10 11:01:17;;;;;;;14.27;2.55;;;;;;;;;;5146835;27;20051;-74
2022/11/10 11:03:46;;;;;;;16.17;3.28;;;;;;;;;;5143957;27;20561;-74
2022/11/10 11:06:16;;;;;;;11.43;2.40;;;;;;;;;;5122726;27;20047;-75
2022/11/10 11:08:55;;;;;;;15.20;2.83;;;;;;;;;;5130757;27;22312;-74
2022/11/10 11:11:27;;;;;;;15.05;2.95;;;;;;;;;;5134131;27;20047;-75
2022/11/10 11:14:12;;;;;;;12.35;2.45;;;;;;;;;;5132935;27;20047;-75
2022/11/10 11:16:50;;;;;;;8.57;2.90;;;;;;;;;;5122739;27;20491;-75
2022/11/10 11:19:18;;;;;;;12.52;2.83;;;;;;;;;;5128873;27;20059;-74
2022/11/10 11:21:58;;;;;;;14.20;2.85;;;;;;;;;;5131396;27;20043;-75
2022/11/10 11:24:39;;;;;;;16.83;2.75;;;;;;;;;;5129866;27;20059;-74
2022/11/10 11:27:26;;;;;;;15.98;2.97;;;;;;;;;;5132475;27;20043;-75
2022/11/10 11:29:56;;;;;;;14.85;3.13;;;;;;;;;;5120602;27;20050;-74
2022/11/10 11:32:24;;;;;;;13.98;2.80;;;;;;;;;;5139436;27;20047;-74
2022/11/10 11:35:00;;;;;;;13.70;2.92;;;;;;;;;;5129537;27;20044;-74
2022/11/10 11:37:33;;;;;;;16.45;2.78;;;;;;;;;;5111910;27;20500;-74
2022/11/10 11:40:18;;;;;;;15.35;2.83;;;;;;;;;;5114920;27;20057;-74
2022/11/10 11:42:56;;;;;;;12.77;2.83;;;;;;;;;;5138164;27;20050;-74
2022/11/10 11:45:29;;;;;;;17.67;3.72;;;;;;;;;;5134483;27;20039;-74
2022/11/10 11:48:18;;;;;;;14.80;2.53;;;;;;;;;;5129080;27;20047;-74
2022/11/10 11:50:54;;;;;;;12.60;2.58;;;;;;;;;;5121213;27;20055;-74
2022/11/10 11:53:37;;;;;;;17.63;3.00;;;;;;;;;;5115372;27;20048;-74
2022/11/10 11:56:23;;;;;;;13.57;2.88;;;;;;;;;;5144808;27;20077;-74
2022/11/10 11:58:55;;;;;;;16.42;2.85;;;;;;;;;;5140684;27;20055;-75
2022/11/10 12:01:23;;;;;;;12.88;2.83;;;;;;;;;;5141612;27;20056;-74
2022/11/10 12:04:09;;;;;;;14.35;2.92;;;;;;;;;;5141195;27;20044;-74
2022/11/10 12:06:36;;;;;;;11.77;2.30;;;;;;;;;;5140155;27;20544;-74
2022/11/10 12:09:10;;;;;;;15.20;2.92;;;;;;;;;;5138591;27;20055;-74
2022/11/10 12:11:43;;;;;;;13.73;2.75;;;;;;;;;;5137759;27;20051;-74
2022/11/10 12:14:10;;;;;;;26.95;3.08;;;;;;;;;;5129273;27;20044;-74
2022/11/10 12:16:38;;;;;;;11.15;2.35;;;;;;;;;;5132659;27;20075;-75
2022/11/10 12:19:29;;;;;;;19.08;2.80;;;;;;;;;;5138127;27;20079;-74
2022/11/10 12:21:56;;;;;;;14.63;2.70;;;;;;;;;;5136832;27;20496;-73
2022/11/10 12:24:27;;;;;;;16.48;2.83;;;;;;;;;;5131348;27;20412;-74
2022/11/10 12:26:57;;;;;;;14.48;3.22;;;;;;;;;;5135950;27;20130;-73
2022/11/10 12:29:24;;;;;;;16.70;2.97;;;;;;;;;;5135808;27;20051;-73
2022/11/10 12:31:54;;;;;;;19.90;2.78;;;;;;;;;;5141403;27;20105;-73
2022/11/10 12:34:21;;;;;;;14.50;2.58;;;;;;;;;;5137039;27;20047;-74
2022/11/10 12:36:52;;;;;;;18.38;3.13;;;;;;;;;;5136070;27;20069;-74
2022/11/10 12:39:22;;;;;;;12.57;2.83;;;;;;;;;;5135473;27;20078;-74
2022/11/10 12:41:53;;;;;;;13.45;2.53;;;;;;;;;;5137468;27;20477;-73
2022/11/10 12:44:39;;;;;;;14.70;2.55;;;;;;;;;;5139785;27;20062;-73
2022/11/10 12:47:09;;;;;;;14.18;2.58;;;;;;;;;;5122884;27;20137;-74
2022/11/10 12:49:38;;;;;;;15.77;2.42;;;;;;;;;;5140840;27;20047;-73
2022/11/10 12:52:24;;;;;;;12.73;2.67;;;;;;;;;;5123878;27;20051;-73
2022/11/10 12:54:52;;;;;;;19.38;2.63;;;;;;;;;;5136111;27;20055;-74
2022/11/10 12:57:22;;;;;;;12.45;2.50;;;;;;;;;;5132041;27;20432;-74
2022/11/10 12:59:52;;;;;;;12.50;2.33;;;;;;;;;;5138785;27;20047;-74
2022/11/10 13:02:31;;;;;;;12.55;2.05;;;;;;;;;;5118452;27;20052;-73
2022/11/10 13:05:14;;;;;;;8.82;2.00;;;;;;;;;;5135287;27;20059;-73
2022/11/10 13:07:47;;;;;;;11.50;1.85;;;;;;;;;;5127375;27;20693;-73
2022/11/10 13:10:24;;;;;;;14.75;2.25;;;;;;;;;;5132064;27;20051;-73
2022/11/10 13:13:17;;;;;;;15.98;2.25;;;;;;;;;;5131760;27;20051;-74
2022/11/10 13:15:49;;;;;;;11.85;2.30;;;;;;;;;;5134183;27;20059;-74
2022/11/10 13:18:22;;;;;;;10.68;2.10;;;;;;;;;;5133278;27;20104;-74
2022/11/10 13:20:51;;;;;;;10.45;2.67;;;;;;;;;;5134786;27;20132;-74
2022/11/10 13:23:32;;;;;;;12.25;2.13;;;;;;;;;;5132302;27;20134;-74
2022/11/10 13:25:59;;;;;;;10.30;2.10;;;;;;;;;;5144553;27;20058;-74
2022/11/10 13:28:45;;;;;;;8.30;1.92;;;;;;;;;;5137203;27;20062;-74
2022/11/10 13:31:27;;;;;;;8.00;1.80;;;;;;;;;;5137259;27;20059;-74
2022/11/10 13:34:05;;;;;;;12.52;2.10;;;;;;;;;;5117683;27;20071;-74
2022/11/10 13:36:37;;;;;;;13.50;2.53;;;;;;;;;;5133353;27;20097;-74
2022/11/10 13:39:21;;;;;;;10.40;2.30;;;;;;;;;;5142873;27;20510;-74
2022/11/10 13:41:52;;;;;;;13.85;2.45;;;;;;;;;;5136257;27;20102;-74
2022/11/10 13:44:25;;;;;;;8.82;2.40;;;;;;;;;;5142879;27;20047;-74
2022/11/10 13:46:52;;;;;;;;;;;;;;;;;;5137407;27;20052;-74
2022/11/10 13:49:49;;;;;;;10.80;1.70;;;;;;;;;;5132577;27;45897;-74
2022/11/10 13:52:17;;;;;;;10.43;2.03;;;;;;;;;;5114765;27;20189;-74
2022/11/10 13:54:53;;;;;;;14.13;2.30;;;;;;;;;;5126291;27;20511;-74
2022/11/10 13:57:24;;;;;;;11.15;1.83;;;;;;;;;;5132287;27;20067;-74
2022/11/10 13:59:55;;;;;;;13.30;2.38;;;;;;;;;;5139083;27;20051;-74
2022/11/10 14:02:38;;;;;;;12.13;1.63;;;;;;;;;;5134270;27;20051;-74
2022/11/10 14:05:06;;;;;;;13.00;1.92;;;;;;;;;;5138637;27;20051;-74
2022/11/10 14:07:42;;;;;;;12.32;2.33;;;;;;;;;;5131531;27;20058;-74
2022/11/10 14:10:15;;;;;;;12.35;2.00;;;;;;;;;;5131005;27;20106;-74
2022/11/10 14:12:42;;;;;;;;;;;;;;;;;;5138780;27;20100;-75
2022/11/10 14:15:15;;;;;;;9.95;2.60;;;;;;;;;;5137538;27;41471;-74
2022/11/10 14:17:43;;;;;;;;;;;;;;;;;;5135679;27;20055;-74
2022/11/10 14:20:28;;;;;;;10.43;2.42;;;;;;;;;;5133810;27;43271;-74
2022/11/10 14:22:56;;;;;;;16.77;2.17;;;;;;;;;;5129346;27;20598;-74
2022/11/10 14:25:25;;;;;;;16.17;2.25;;;;;;;;;;5131816;27;20520;-74
2022/11/10 14:27:52;;;;;;;10.85;2.38;;;;;;;;;;5143108;27;20051;-74
2022/11/10 14:30:25;;;;;;;13.95;2.22;;;;;;;;;;5135583;27;20172;-74
2022/11/10 14:33:01;;;;;;;12.43;2.28;;;;;;;;;;5136358;27;20043;-74
2022/11/10 14:35:30;;;;;;;12.10;1.95;;;;;;;;;;5145219;27;21011;-74
2022/11/10 14:38:02;;;;;;;14.10;2.47;;;;;;;;;;5147419;27;20071;-74
2022/11/10 14:40:30;;;;;;;12.30;2.10;;;;;;;;;;5144344;27;20047;-74
2022/11/10 14:42:58;;;;;;;8.65;2.03;;;;;;;;;;5140899;27;20043;-74
2022/11/10 14:45:27;;;;;;;11.80;2.03;;;;;;;;;;5142028;27;20074;-74
2022/11/10 14:47:58;;;;;;;8.70;1.80;;;;;;;;;;5145583;27;20051;-74
2022/11/10 14:50:31;;;;;;;10.90;2.05;;;;;;;;;;5138060;27;20055;-74
2022/11/10 14:53:23;;;;;;;13.23;2.58;;;;;;;;;;5137232;27;20051;-74
2022/11/10 14:55:51;;;;;;;8.77;1.77;;;;;;;;;;5138638;27;20055;-74
2022/11/10 14:58:41;;;;;;;13.73;2.30;;;;;;;;;;5137930;27;20054;-74
2022/11/10 15:01:22;;;;;;;12.02;2.40;;;;;;;;;;5138076;27;20052;-74
2022/11/10 15:03:49;;;;;;;7.97;1.80;;;;;;;;;;5134268;27;20060;-74
2022/11/10 15:06:16;;;;;;;13.73;2.03;;;;;;;;;;5141536;27;20057;-75
2022/11/10 15:08:44;;;;;;;13.10;2.90;;;;;;;;;;5134187;27;20059;-74
2022/11/10 15:11:30;;;;;;;11.07;2.25;;;;;;;;;;5130471;27;20044;-74